sensor_id;sensor_type;location;lat;lon;timestamp;temperature;humidity
8563;DHT22;16392;52.508;13.468;2023-10-08T00:02:04;11.70;99.90
8563;DHT22;16392;52.508;13.468;2023-10-08T00:04:32;11.80;99.90
8563;DHT22;16392;52.508;13.468;2023-10-08T00:07:02;11.70;99.90
8563;DHT22;16392;52.508;13.468;2023-10-08T00:09:29;11.70;99.90
8563;DHT22;16392;52.508;13.468;2023-10-08T00:12:02;11.70;99.90
8563;DHT22;16392;52.508;13.468;2023-10-08T00:14:29;11.70;99.90
8563;DHT22;16392;52.508;13.468;2023-10-08T00:16:57;11.80;99.90
8563;DHT22;16392;52.508;13.468;2023-10-08T00:19:25;11.70;99.90
8563;DHT22;16392;52.508;13.468;2023-10-08T00:21:59;11.80;99.90
8563;DHT22;16392;52.508;13.468;2023-10-08T00:24:30;11.80;99.90
8563;DHT22;16392;52.508;13.468;2023-10-08T00:26:58;11.70;99.90
8563;DHT22;16392;52.508;13.468;2023-10-08T00:29:27;11.70;99.90
8563;DHT22;16392;52.508;13.468;2023-10-08T00:31:57;11.80;99.90
8563;DHT22;16392;52.508;13.468;2023-10-08T00:34:24;11.80;99.90
8563;DHT22;16392;52.508;13.468;2023-10-08T00:36:53;11.80;99.90
8563;DHT22;16392;52.508;13.468;2023-10-08T00:39:20;11.80;99.90
8563;DHT22;16392;52.508;13.468;2023-10-08T00:41:50;11.80;99.90
8563;DHT22;16392;52.508;13.468;2023-10-08T00:44:20;11.70;99.90
8563;DHT22;16392;52.508;13.468;2023-10-08T00:46:56;11.80;99.90
8563;DHT22;16392;52.508;13.468;2023-10-08T00:49:27;11.70;99.90
8563;DHT22;16392;52.508;13.468;2023-10-08T00:52:15;11.80;99.90
8563;DHT22;16392;52.508;13.468;2023-10-08T00:54:52;11.80;99.90
8563;DHT22;16392;52.508;13.468;2023-10-08T00:57:31;11.80;99.90
8563;DHT22;16392;52.508;13.468;2023-10-08T01:00:01;11.80;99.90
8563;DHT22;16392;52.508;13.468;2023-10-08T01:02:31;11.70;99.90
8563;DHT22;16392;52.508;13.468;2023-10-08T01:05:13;11.70;99.90
8563;DHT22;16392;52.508;13.468;2023-10-08T01:07:42;11.70;99.90
8563;DHT22;16392;52.508;13.468;2023-10-08T01:10:11;11.70;99.90
8563;DHT22;16392;52.508;13.468;2023-10-08T01:12:44;11.70;99.90
8563;DHT22;16392;52.508;13.468;2023-10-08T01:15:20;11.70;99.90
8563;DHT22;16392;52.508;13.468;2023-10-08T01:17:55;11.70;99.90
8563;DHT22;16392;52.508;13.468;2023-10-08T01:20:26;11.70;99.90
8563;DHT22;16392;52.508;13.468;2023-10-08T01:23:06;11.70;99.90
8563;DHT22;16392;52.508;13.468;2023-10-08T01:25:38;11.70;99.90
8563;DHT22;16392;52.508;13.468;2023-10-08T01:28:06;11.70;99.90
8563;DHT22;16392;52.508;13.468;2023-10-08T01:30:41;11.60;99.90
8563;DHT22;16392;52.508;13.468;2023-10-08T01:33:12;11.60;99.90
8563;DHT22;16392;52.508;13.468;2023-10-08T01:35:40;11.60;99.90
8563;DHT22;16392;52.508;13.468;2023-10-08T01:38:09;11.60;99.90
8563;DHT22;16392;52.508;13.468;2023-10-08T01:40:42;11.60;99.90
8563;DHT22;16392;52.508;13.468;2023-10-08T01:43:15;11.60;99.90
8563;DHT22;16392;52.508;13.468;2023-10-08T01:45:43;11.50;99.90
8563;DHT22;16392;52.508;13.468;2023-10-08T01:48:14;11.60;99.90
8563;DHT22;16392;52.508;13.468;2023-10-08T01:50:45;11.60;99.90
8563;DHT22;16392;52.508;13.468;2023-10-08T01:53:14;11.50;99.90
8563;DHT22;16392;52.508;13.468;2023-10-08T01:55:41;11.60;99.90
8563;DHT22;16392;52.508;13.468;2023-10-08T01:58:21;11.50;99.90
8563;DHT22;16392;52.508;13.468;2023-10-08T02:00:48;11.60;99.90
8563;DHT22;16392;52.508;13.468;2023-10-08T02:03:17;11.50;99.90
8563;DHT22;16392;52.508;13.468;2023-10-08T02:05:45;11.50;99.90
8563;DHT22;16392;52.508;13.468;2023-10-08T02:08:14;11.50;99.90
8563;DHT22;16392;52.508;13.468;2023-10-08T02:10:42;11.50;99.90
8563;DHT22;16392;52.508;13.468;2023-10-08T02:13:13;11.50;99.90
8563;DHT22;16392;52.508;13.468;2023-10-08T02:15:44;11.50;99.90
8563;DHT22;16392;52.508;13.468;2023-10-08T02:18:13;11.50;99.90
8563;DHT22;16392;52.508;13.468;2023-10-08T02:20:39;11.60;99.90
8563;DHT22;16392;52.508;13.468;2023-10-08T02:23:06;11.60;99.90
8563;DHT22;16392;52.508;13.468;2023-10-08T02:25:34;11.50;99.90
8563;DHT22;16392;52.508;13.468;2023-10-08T02:28:02;11.50;99.90
8563;DHT22;16392;52.508;13.468;2023-10-08T02:30:29;11.60;99.90
8563;DHT22;16392;52.508;13.468;2023-10-08T02:32:55;11.60;99.90
8563;DHT22;16392;52.508;13.468;2023-10-08T02:35:24;11.60;99.90
8563;DHT22;16392;52.508;13.468;2023-10-08T02:37:50;11.60;99.90
8563;DHT22;16392;52.508;13.468;2023-10-08T02:40:17;11.60;99.90
8563;DHT22;16392;52.508;13.468;2023-10-08T02:42:53;11.60;99.90
8563;DHT22;16392;52.508;13.468;2023-10-08T02:45:24;11.60;99.90
8563;DHT22;16392;52.508;13.468;2023-10-08T02:47:51;11.60;99.90
8563;DHT22;16392;52.508;13.468;2023-10-08T02:50:18;11.60;99.90
8563;DHT22;16392;52.508;13.468;2023-10-08T02:52:45;11.60;99.90
8563;DHT22;16392;52.508;13.468;2023-10-08T02:55:11;11.60;99.90
8563;DHT22;16392;52.508;13.468;2023-10-08T02:57:50;11.60;99.90
8563;DHT22;16392;52.508;13.468;2023-10-08T03:00:19;11.60;99.90
8563;DHT22;16392;52.508;13.468;2023-10-08T03:02:46;11.60;99.90
8563;DHT22;16392;52.508;13.468;2023-10-08T03:05:13;11.50;99.90
8563;DHT22;16392;52.508;13.468;2023-10-08T03:07:42;11.60;99.90
8563;DHT22;16392;52.508;13.468;2023-10-08T03:10:09;11.50;99.90
8563;DHT22;16392;52.508;13.468;2023-10-08T03:12:43;11.50;99.90
8563;DHT22;16392;52.508;13.468;2023-10-08T03:15:13;11.50;99.90
8563;DHT22;16392;52.508;13.468;2023-10-08T03:17:54;11.50;99.90
8563;DHT22;16392;52.508;13.468;2023-10-08T03:20:23;11.50;99.90
8563;DHT22;16392;52.508;13.468;2023-10-08T03:23:03;11.50;99.90
8563;DHT22;16392;52.508;13.468;2023-10-08T03:25:32;11.50;99.90
8563;DHT22;16392;52.508;13.468;2023-10-08T03:28:07;11.50;99.90
8563;DHT22;16392;52.508;13.468;2023-10-08T03:30:34;11.50;99.90
8563;DHT22;16392;52.508;13.468;2023-10-08T03:33:16;11.50;99.90
8563;DHT22;16392;52.508;13.468;2023-10-08T03:35:48;11.50;99.90
8563;DHT22;16392;52.508;13.468;2023-10-08T03:38:15;11.50;99.90
8563;DHT22;16392;52.508;13.468;2023-10-08T03:40:47;11.50;99.90
8563;DHT22;16392;52.508;13.468;2023-10-08T03:43:15;11.50;99.90
8563;DHT22;16392;52.508;13.468;2023-10-08T03:45:59;11.50;99.90
8563;DHT22;16392;52.508;13.468;2023-10-08T03:48:32;11.40;99.90
8563;DHT22;16392;52.508;13.468;2023-10-08T03:51:04;11.40;99.90
8563;DHT22;16392;52.508;13.468;2023-10-08T03:53:37;11.30;99.90
8563;DHT22;16392;52.508;13.468;2023-10-08T03:56:18;11.30;99.90
8563;DHT22;16392;52.508;13.468;2023-10-08T03:58:45;11.40;99.90
8563;DHT22;16392;52.508;13.468;2023-10-08T04:01:12;11.40;99.90
8563;DHT22;16392;52.508;13.468;2023-10-08T04:03:45;11.40;99.90
8563;DHT22;16392;52.508;13.468;2023-10-08T04:06:23;11.40;99.90
8563;DHT22;16392;52.508;13.468;2023-10-08T04:08:55;11.40;99.90
8563;DHT22;16392;52.508;13.468;2023-10-08T04:11:37;11.40;99.90
8563;DHT22;16392;52.508;13.468;2023-10-08T04:14:15;11.40;99.90
8563;DHT22;16392;52.508;13.468;2023-10-08T04:16:42;11.30;99.90
8563;DHT22;16392;52.508;13.468;2023-10-08T04:19:11;11.30;99.90
8563;DHT22;16392;52.508;13.468;2023-10-08T04:21:37;11.30;99.90
8563;DHT22;16392;52.508;13.468;2023-10-08T04:24:07;11.30;99.90
8563;DHT22;16392;52.508;13.468;2023-10-08T04:26:34;11.30;99.90
8563;DHT22;16392;52.508;13.468;2023-10-08T04:29:01;11.30;99.90
8563;DHT22;16392;52.508;13.468;2023-10-08T04:31:29;11.30;99.90
8563;DHT22;16392;52.508;13.468;2023-10-08T04:34:02;11.30;99.90
8563;DHT22;16392;52.508;13.468;2023-10-08T04:36:36;11.30;99.90
8563;DHT22;16392;52.508;13.468;2023-10-08T04:39:03;11.30;99.90
8563;DHT22;16392;52.508;13.468;2023-10-08T04:41:39;11.20;99.90
8563;DHT22;16392;52.508;13.468;2023-10-08T04:44:09;11.20;99.90
8563;DHT22;16392;52.508;13.468;2023-10-08T04:46:41;11.20;99.90
8563;DHT22;16392;52.508;13.468;2023-10-08T04:49:17;11.10;99.90
8563;DHT22;16392;52.508;13.468;2023-10-08T04:51:54;11.10;99.90
8563;DHT22;16392;52.508;13.468;2023-10-08T04:54:24;11.10;99.90
8563;DHT22;16392;52.508;13.468;2023-10-08T04:56:56;11.10;99.90
8563;DHT22;16392;52.508;13.468;2023-10-08T04:59:24;11.00;99.90
8563;DHT22;16392;52.508;13.468;2023-10-08T05:01:58;11.00;99.90
8563;DHT22;16392;52.508;13.468;2023-10-08T05:04:44;10.90;99.90
8563;DHT22;16392;52.508;13.468;2023-10-08T05:07:34;10.90;99.90
8563;DHT22;16392;52.508;13.468;2023-10-08T05:10:26;10.90;99.90
8563;DHT22;16392;52.508;13.468;2023-10-08T05:13:10;10.90;99.90
8563;DHT22;16392;52.508;13.468;2023-10-08T05:15:44;10.80;99.90
8563;DHT22;16392;52.508;13.468;2023-10-08T05:18:30;10.80;99.90
8563;DHT22;16392;52.508;13.468;2023-10-08T05:21:24;10.90;99.90
8563;DHT22;16392;52.508;13.468;2023-10-08T05:24:07;10.90;99.90
8563;DHT22;16392;52.508;13.468;2023-10-08T05:26:39;10.80;99.90
8563;DHT22;16392;52.508;13.468;2023-10-08T05:29:10;10.80;99.90
8563;DHT22;16392;52.508;13.468;2023-10-08T05:32:05;10.80;99.90
8563;DHT22;16392;52.508;13.468;2023-10-08T05:34:45;10.80;99.90
8563;DHT22;16392;52.508;13.468;2023-10-08T05:37:37;10.80;99.90
8563;DHT22;16392;52.508;13.468;2023-10-08T05:40:09;10.80;99.90
8563;DHT22;16392;52.508;13.468;2023-10-08T05:42:47;10.80;99.90
8563;DHT22;16392;52.508;13.468;2023-10-08T05:45:15;10.90;99.90
8563;DHT22;16392;52.508;13.468;2023-10-08T05:47:55;10.90;99.90
8563;DHT22;16392;52.508;13.468;2023-10-08T05:50:39;11.00;99.90
8563;DHT22;16392;52.508;13.468;2023-10-08T05:53:08;11.30;99.90
8563;DHT22;16392;52.508;13.468;2023-10-08T05:55:46;11.80;99.90
8563;DHT22;16392;52.508;13.468;2023-10-08T05:58:26;11.90;99.90
8563;DHT22;16392;52.508;13.468;2023-10-08T06:01:01;12.30;99.90
8563;DHT22;16392;52.508;13.468;2023-10-08T06:03:33;12.40;99.90
8563;DHT22;16392;52.508;13.468;2023-10-08T06:06:05;12.40;99.90
8563;DHT22;16392;52.508;13.468;2023-10-08T06:09:02;12.70;99.90
8563;DHT22;16392;52.508;13.468;2023-10-08T06:11:49;12.70;99.90
8563;DHT22;16392;52.508;13.468;2023-10-08T06:14:34;13.00;99.90
8563;DHT22;16392;52.508;13.468;2023-10-08T06:17:32;13.50;99.90
8563;DHT22;16392;52.508;13.468;2023-10-08T06:20:25;14.20;99.90
8563;DHT22;16392;52.508;13.468;2023-10-08T06:22:53;13.70;99.90
8563;DHT22;16392;52.508;13.468;2023-10-08T06:25:25;13.70;99.90
8563;DHT22;16392;52.508;13.468;2023-10-08T06:27:54;14.30;99.90
8563;DHT22;16392;52.508;13.468;2023-10-08T06:30:22;14.20;99.90
8563;DHT22;16392;52.508;13.468;2023-10-08T06:32:55;13.70;99.90
8563;DHT22;16392;52.508;13.468;2023-10-08T06:35:22;12.90;99.90
8563;DHT22;16392;52.508;13.468;2023-10-08T06:37:53;12.60;99.90
8563;DHT22;16392;52.508;13.468;2023-10-08T06:40:21;12.40;99.90
8563;DHT22;16392;52.508;13.468;2023-10-08T06:43:08;12.60;99.90
8563;DHT22;16392;52.508;13.468;2023-10-08T06:45:41;13.20;99.90
8563;DHT22;16392;52.508;13.468;2023-10-08T06:48:08;13.30;99.90
8563;DHT22;16392;52.508;13.468;2023-10-08T06:50:43;13.90;99.90
8563;DHT22;16392;52.508;13.468;2023-10-08T06:53:11;14.60;99.90
8563;DHT22;16392;52.508;13.468;2023-10-08T06:55:39;14.50;99.90
8563;DHT22;16392;52.508;13.468;2023-10-08T06:58:08;14.00;99.90
8563;DHT22;16392;52.508;13.468;2023-10-08T07:00:37;14.60;99.90
8563;DHT22;16392;52.508;13.468;2023-10-08T07:03:12;14.80;99.90
8563;DHT22;16392;52.508;13.468;2023-10-08T07:05:40;14.40;99.90
8563;DHT22;16392;52.508;13.468;2023-10-08T07:08:10;14.10;99.90
8563;DHT22;16392;52.508;13.468;2023-10-08T07:10:39;14.00;99.90
8563;DHT22;16392;52.508;13.468;2023-10-08T07:13:08;14.00;99.90
8563;DHT22;16392;52.508;13.468;2023-10-08T07:15:35;14.60;99.90
8563;DHT22;16392;52.508;13.468;2023-10-08T07:18:05;15.80;99.90
8563;DHT22;16392;52.508;13.468;2023-10-08T07:20:39;15.70;99.90
8563;DHT22;16392;52.508;13.468;2023-10-08T07:23:08;16.30;99.90
8563;DHT22;16392;52.508;13.468;2023-10-08T07:25:52;16.90;58.30
8563;DHT22;16392;52.508;13.468;2023-10-08T07:28:24;16.70;1.00
8563;DHT22;16392;52.508;13.468;2023-10-08T07:30:52;16.30;1.00
8563;DHT22;16392;52.508;13.468;2023-10-08T07:33:18;16.00;1.00
8563;DHT22;16392;52.508;13.468;2023-10-08T07:35:46;16.40;21.20
8563;DHT22;16392;52.508;13.468;2023-10-08T07:38:28;16.60;34.10
8563;DHT22;16392;52.508;13.468;2023-10-08T07:40:56;17.20;1.00
8563;DHT22;16392;52.508;13.468;2023-10-08T07:43:24;17.10;1.00
8563;DHT22;16392;52.508;13.468;2023-10-08T07:45:51;17.20;1.00
8563;DHT22;16392;52.508;13.468;2023-10-08T07:48:20;18.00;1.00
8563;DHT22;16392;52.508;13.468;2023-10-08T07:50:48;18.40;1.00
8563;DHT22;16392;52.508;13.468;2023-10-08T07:53:16;18.00;1.00
8563;DHT22;16392;52.508;13.468;2023-10-08T07:55:47;17.10;1.00
8563;DHT22;16392;52.508;13.468;2023-10-08T07:58:15;16.80;1.00
8563;DHT22;16392;52.508;13.468;2023-10-08T08:00:43;16.30;1.00
8563;DHT22;16392;52.508;13.468;2023-10-08T08:03:19;16.40;1.00
8563;DHT22;16392;52.508;13.468;2023-10-08T08:05:46;16.60;1.00
8563;DHT22;16392;52.508;13.468;2023-10-08T08:08:14;16.70;1.00
8563;DHT22;16392;52.508;13.468;2023-10-08T08:10:44;17.50;1.00
8563;DHT22;16392;52.508;13.468;2023-10-08T08:13:12;17.20;1.00
8563;DHT22;16392;52.508;13.468;2023-10-08T08:15:40;16.30;1.00
8563;DHT22;16392;52.508;13.468;2023-10-08T08:18:10;16.10;1.00
8563;DHT22;16392;52.508;13.468;2023-10-08T08:20:48;16.50;1.00
8563;DHT22;16392;52.508;13.468;2023-10-08T08:23:14;16.50;1.00
8563;DHT22;16392;52.508;13.468;2023-10-08T08:25:42;16.60;1.00
8563;DHT22;16392;52.508;13.468;2023-10-08T08:28:21;17.70;1.00
8563;DHT22;16392;52.508;13.468;2023-10-08T08:30:50;18.30;1.00
8563;DHT22;16392;52.508;13.468;2023-10-08T08:33:19;17.90;1.00
8563;DHT22;16392;52.508;13.468;2023-10-08T08:35:57;18.30;1.00
8563;DHT22;16392;52.508;13.468;2023-10-08T08:38:25;18.70;1.00
8563;DHT22;16392;52.508;13.468;2023-10-08T08:40:52;17.80;1.00
8563;DHT22;16392;52.508;13.468;2023-10-08T08:43:33;16.80;1.00
8563;DHT22;16392;52.508;13.468;2023-10-08T08:46:02;17.50;1.00
8563;DHT22;16392;52.508;13.468;2023-10-08T08:48:30;18.00;1.00
8563;DHT22;16392;52.508;13.468;2023-10-08T08:50:58;18.90;1.00
8563;DHT22;16392;52.508;13.468;2023-10-08T08:53:25;19.00;1.00
8563;DHT22;16392;52.508;13.468;2023-10-08T08:55:53;19.20;1.00
8563;DHT22;16392;52.508;13.468;2023-10-08T08:58:21;18.50;1.00
8563;DHT22;16392;52.508;13.468;2023-10-08T09:00:52;18.40;1.00
8563;DHT22;16392;52.508;13.468;2023-10-08T09:03:19;18.70;1.00
8563;DHT22;16392;52.508;13.468;2023-10-08T09:05:47;19.20;1.00
8563;DHT22;16392;52.508;13.468;2023-10-08T09:08:16;19.10;1.00
8563;DHT22;16392;52.508;13.468;2023-10-08T09:10:44;18.90;1.00
8563;DHT22;16392;52.508;13.468;2023-10-08T09:13:20;19.90;1.00
8563;DHT22;16392;52.508;13.468;2023-10-08T09:15:48;20.30;1.00
8563;DHT22;16392;52.508;13.468;2023-10-08T09:18:15;19.80;99.90
8563;DHT22;16392;52.508;13.468;2023-10-08T09:20:41;20.70;99.90
8563;DHT22;16392;52.508;13.468;2023-10-08T09:23:11;21.20;1.00
8563;DHT22;16392;52.508;13.468;2023-10-08T09:25:38;20.80;1.00
8563;DHT22;16392;52.508;13.468;2023-10-08T09:28:05;20.80;99.90
8563;DHT22;16392;52.508;13.468;2023-10-08T09:30:34;20.90;99.90
8563;DHT22;16392;52.508;13.468;2023-10-08T09:33:04;21.20;99.90
8563;DHT22;16392;52.508;13.468;2023-10-08T09:35:32;20.50;99.90
8563;DHT22;16392;52.508;13.468;2023-10-08T09:38:00;20.10;1.00
8563;DHT22;16392;52.508;13.468;2023-10-08T09:40:30;18.50;1.00
8563;DHT22;16392;52.508;13.468;2023-10-08T09:42:56;18.20;1.00
8563;DHT22;16392;52.508;13.468;2023-10-08T09:45:25;18.80;1.00
8563;DHT22;16392;52.508;13.468;2023-10-08T09:47:54;18.80;1.00
8563;DHT22;16392;52.508;13.468;2023-10-08T09:50:26;19.30;1.00
8563;DHT22;16392;52.508;13.468;2023-10-08T09:52:59;18.70;1.00
8563;DHT22;16392;52.508;13.468;2023-10-08T09:55:27;19.00;99.90
8563;DHT22;16392;52.508;13.468;2023-10-08T09:57:56;19.30;1.00
8563;DHT22;16392;52.508;13.468;2023-10-08T10:00:26;19.30;1.00
8563;DHT22;16392;52.508;13.468;2023-10-08T10:02:58;18.00;45.70
8563;DHT22;16392;52.508;13.468;2023-10-08T10:05:29;17.20;1.00
8563;DHT22;16392;52.508;13.468;2023-10-08T10:07:56;17.30;1.00
8563;DHT22;16392;52.508;13.468;2023-10-08T10:10:27;18.30;99.90
8563;DHT22;16392;52.508;13.468;2023-10-08T10:13:00;18.20;99.90
8563;DHT22;16392;52.508;13.468;2023-10-08T10:15:28;18.30;99.90
8563;DHT22;16392;52.508;13.468;2023-10-08T10:17:59;19.30;99.90
8563;DHT22;16392;52.508;13.468;2023-10-08T10:20:34;18.60;1.00
8563;DHT22;16392;52.508;13.468;2023-10-08T10:23:38;17.90;1.00
8563;DHT22;16392;52.508;13.468;2023-10-08T10:26:22;17.90;1.00
8563;DHT22;16392;52.508;13.468;2023-10-08T10:29:22;18.70;1.00
8563;DHT22;16392;52.508;13.468;2023-10-08T10:31:52;19.70;1.00
8563;DHT22;16392;52.508;13.468;2023-10-08T10:34:21;18.40;99.90
8563;DHT22;16392;52.508;13.468;2023-10-08T10:36:50;17.90;99.90
8563;DHT22;16392;52.508;13.468;2023-10-08T10:39:23;17.80;99.90
8563;DHT22;16392;52.508;13.468;2023-10-08T10:41:57;18.10;77.60
8563;DHT22;16392;52.508;13.468;2023-10-08T10:44:27;18.00;99.90
8563;DHT22;16392;52.508;13.468;2023-10-08T10:46:55;18.20;99.90
8563;DHT22;16392;52.508;13.468;2023-10-08T10:49:48;18.10;99.90
8563;DHT22;16392;52.508;13.468;2023-10-08T10:52:20;18.30;36.30
8563;DHT22;16392;52.508;13.468;2023-10-08T10:54:59;18.50;99.90
8563;DHT22;16392;52.508;13.468;2023-10-08T10:57:26;18.20;1.00
8563;DHT22;16392;52.508;13.468;2023-10-08T11:00:02;18.00;99.90
8563;DHT22;16392;52.508;13.468;2023-10-08T11:02:44;18.00;99.90
8563;DHT22;16392;52.508;13.468;2023-10-08T11:05:14;17.20;99.90
8563;DHT22;16392;52.508;13.468;2023-10-08T11:07:46;16.50;99.40
8563;DHT22;16392;52.508;13.468;2023-10-08T11:10:14;16.30;99.90
8563;DHT22;16392;52.508;13.468;2023-10-08T11:12:41;16.30;99.90
8563;DHT22;16392;52.508;13.468;2023-10-08T11:15:12;16.30;99.90
8563;DHT22;16392;52.508;13.468;2023-10-08T11:17:41;16.60;99.90
8563;DHT22;16392;52.508;13.468;2023-10-08T11:20:23;16.20;99.90
8563;DHT22;16392;52.508;13.468;2023-10-08T11:22:51;16.30;99.90
8563;DHT22;16392;52.508;13.468;2023-10-08T11:25:24;16.30;99.90
8563;DHT22;16392;52.508;13.468;2023-10-08T11:27:56;17.00;99.90
8563;DHT22;16392;52.508;13.468;2023-10-08T11:30:27;17.80;99.90
8563;DHT22;16392;52.508;13.468;2023-10-08T11:32:56;18.50;1.00
8563;DHT22;16392;52.508;13.468;2023-10-08T11:35:25;19.00;1.00
8563;DHT22;16392;52.508;13.468;2023-10-08T11:37:58;17.90;1.00
8563;DHT22;16392;52.508;13.468;2023-10-08T11:40:28;17.40;1.00
8563;DHT22;16392;52.508;13.468;2023-10-08T11:42:55;17.60;1.00
8563;DHT22;16392;52.508;13.468;2023-10-08T11:45:24;17.50;1.00
8563;DHT22;16392;52.508;13.468;2023-10-08T11:47:52;17.80;1.00
8563;DHT22;16392;52.508;13.468;2023-10-08T11:50:25;17.80;1.00
8563;DHT22;16392;52.508;13.468;2023-10-08T11:52:58;17.90;1.00
8563;DHT22;16392;52.508;13.468;2023-10-08T11:55:31;17.50;1.00
8563;DHT22;16392;52.508;13.468;2023-10-08T11:58:01;16.80;1.00
8563;DHT22;16392;52.508;13.468;2023-10-08T12:00:35;16.60;1.00
8563;DHT22;16392;52.508;13.468;2023-10-08T12:03:09;17.30;1.00
8563;DHT22;16392;52.508;13.468;2023-10-08T12:05:37;17.60;1.00
8563;DHT22;16392;52.508;13.468;2023-10-08T12:08:13;17.60;1.00
8563;DHT22;16392;52.508;13.468;2023-10-08T12:10:41;18.00;35.90
8563;DHT22;16392;52.508;13.468;2023-10-08T12:13:08;17.80;1.00
8563;DHT22;16392;52.508;13.468;2023-10-08T12:15:36;17.80;1.00
8563;DHT22;16392;52.508;13.468;2023-10-08T12:18:05;18.00;1.00
8563;DHT22;16392;52.508;13.468;2023-10-08T12:20:39;18.40;1.00
8563;DHT22;16392;52.508;13.468;2023-10-08T12:23:09;18.60;1.00
8563;DHT22;16392;52.508;13.468;2023-10-08T12:25:37;19.20;1.00
8563;DHT22;16392;52.508;13.468;2023-10-08T12:28:05;19.30;1.00
8563;DHT22;16392;52.508;13.468;2023-10-08T12:30:32;19.40;1.00
8563;DHT22;16392;52.508;13.468;2023-10-08T12:33:07;19.10;1.00
8563;DHT22;16392;52.508;13.468;2023-10-08T12:35:39;18.70;1.00
8563;DHT22;16392;52.508;13.468;2023-10-08T12:38:06;18.70;1.00
8563;DHT22;16392;52.508;13.468;2023-10-08T12:40:35;18.20;1.00
8563;DHT22;16392;52.508;13.468;2023-10-08T12:43:14;18.20;1.00
8563;DHT22;16392;52.508;13.468;2023-10-08T12:45:45;18.00;1.00
8563;DHT22;16392;52.508;13.468;2023-10-08T12:48:19;17.30;1.00
8563;DHT22;16392;52.508;13.468;2023-10-08T12:50:46;17.10;1.00
8563;DHT22;16392;52.508;13.468;2023-10-08T12:53:20;16.50;1.00
8563;DHT22;16392;52.508;13.468;2023-10-08T12:55:50;16.70;99.90
8563;DHT22;16392;52.508;13.468;2023-10-08T12:58:21;17.10;99.90
8563;DHT22;16392;52.508;13.468;2023-10-08T13:00:52;17.60;99.90
8563;DHT22;16392;52.508;13.468;2023-10-08T13:03:24;18.40;99.90
8563;DHT22;16392;52.508;13.468;2023-10-08T13:05:51;18.80;1.00
8563;DHT22;16392;52.508;13.468;2023-10-08T13:08:19;17.70;1.00
8563;DHT22;16392;52.508;13.468;2023-10-08T13:10:46;17.20;1.00
8563;DHT22;16392;52.508;13.468;2023-10-08T13:13:12;17.00;99.90
8563;DHT22;16392;52.508;13.468;2023-10-08T13:15:41;16.60;99.90
8563;DHT22;16392;52.508;13.468;2023-10-08T13:18:08;16.40;1.00
8563;DHT22;16392;52.508;13.468;2023-10-08T13:20:35;16.30;1.00
8563;DHT22;16392;52.508;13.468;2023-10-08T13:23:06;16.10;59.80
8563;DHT22;16392;52.508;13.468;2023-10-08T13:25:32;16.30;99.90
8563;DHT22;16392;52.508;13.468;2023-10-08T13:28:05;16.20;1.00
8563;DHT22;16392;52.508;13.468;2023-10-08T13:30:34;15.90;81.70
8563;DHT22;16392;52.508;13.468;2023-10-08T13:33:04;15.70;1.00
8563;DHT22;16392;52.508;13.468;2023-10-08T13:35:33;15.40;1.00
8563;DHT22;16392;52.508;13.468;2023-10-08T13:38:00;15.30;1.00
8563;DHT22;16392;52.508;13.468;2023-10-08T13:40:34;15.30;1.00
8563;DHT22;16392;52.508;13.468;2023-10-08T13:43:05;15.40;1.00
8563;DHT22;16392;52.508;13.468;2023-10-08T13:45:32;15.30;1.00
8563;DHT22;16392;52.508;13.468;2023-10-08T13:48:04;15.30;1.00
8563;DHT22;16392;52.508;13.468;2023-10-08T13:50:31;15.20;1.00
8563;DHT22;16392;52.508;13.468;2023-10-08T13:53:02;15.50;99.90
8563;DHT22;16392;52.508;13.468;2023-10-08T13:55:28;15.40;99.90
8563;DHT22;16392;52.508;13.468;2023-10-08T13:57:55;15.40;1.00
8563;DHT22;16392;52.508;13.468;2023-10-08T14:00:23;15.30;1.00
8563;DHT22;16392;52.508;13.468;2023-10-08T14:02:52;15.40;99.90
8563;DHT22;16392;52.508;13.468;2023-10-08T14:05:20;15.40;99.90
8563;DHT22;16392;52.508;13.468;2023-10-08T14:07:49;15.40;1.00
8563;DHT22;16392;52.508;13.468;2023-10-08T14:10:16;15.30;1.00
8563;DHT22;16392;52.508;13.468;2023-10-08T14:12:45;15.30;1.00
8563;DHT22;16392;52.508;13.468;2023-10-08T14:15:15;15.10;38.80
8563;DHT22;16392;52.508;13.468;2023-10-08T14:17:43;15.00;99.90
8563;DHT22;16392;52.508;13.468;2023-10-08T14:20:10;15.00;1.00
8563;DHT22;16392;52.508;13.468;2023-10-08T14:22:40;14.90;1.00
8563;DHT22;16392;52.508;13.468;2023-10-08T14:25:08;15.00;7.60
8563;DHT22;16392;52.508;13.468;2023-10-08T14:27:37;15.00;99.90
8563;DHT22;16392;52.508;13.468;2023-10-08T14:30:07;15.10;99.90
8563;DHT22;16392;52.508;13.468;2023-10-08T14:32:41;15.00;1.00
8563;DHT22;16392;52.508;13.468;2023-10-08T14:35:11;15.10;1.00
8563;DHT22;16392;52.508;13.468;2023-10-08T14:37:57;14.80;99.90
8563;DHT22;16392;52.508;13.468;2023-10-08T14:40:42;14.80;99.90
8563;DHT22;16392;52.508;13.468;2023-10-08T14:43:26;14.80;1.00
8563;DHT22;16392;52.508;13.468;2023-10-08T14:45:57;14.80;99.90
8563;DHT22;16392;52.508;13.468;2023-10-08T14:48:25;14.90;99.90
8563;DHT22;16392;52.508;13.468;2023-10-08T14:50:54;14.80;1.00
8563;DHT22;16392;52.508;13.468;2023-10-08T14:53:23;14.70;99.90
8563;DHT22;16392;52.508;13.468;2023-10-08T14:55:50;14.70;1.00
8563;DHT22;16392;52.508;13.468;2023-10-08T14:58:17;14.70;1.00
8563;DHT22;16392;52.508;13.468;2023-10-08T15:00:44;14.70;1.00
8563;DHT22;16392;52.508;13.468;2023-10-08T15:03:10;14.70;99.90
8563;DHT22;16392;52.508;13.468;2023-10-08T15:05:38;14.80;1.00
8563;DHT22;16392;52.508;13.468;2023-10-08T15:08:05;14.70;99.90
8563;DHT22;16392;52.508;13.468;2023-10-08T15:10:36;14.70;1.00
8563;DHT22;16392;52.508;13.468;2023-10-08T15:13:03;14.80;99.90
8563;DHT22;16392;52.508;13.468;2023-10-08T15:15:30;14.70;99.90
8563;DHT22;16392;52.508;13.468;2023-10-08T15:18:00;14.70;99.90
8563;DHT22;16392;52.508;13.468;2023-10-08T15:20:27;14.60;1.00
8563;DHT22;16392;52.508;13.468;2023-10-08T15:22:58;14.70;1.00
8563;DHT22;16392;52.508;13.468;2023-10-08T15:25:24;14.70;1.00
8563;DHT22;16392;52.508;13.468;2023-10-08T15:27:53;14.60;99.90
8563;DHT22;16392;52.508;13.468;2023-10-08T15:30:20;14.70;1.00
8563;DHT22;16392;52.508;13.468;2023-10-08T15:32:48;14.70;1.00
8563;DHT22;16392;52.508;13.468;2023-10-08T15:35:19;14.60;68.20
8563;DHT22;16392;52.508;13.468;2023-10-08T15:37:48;14.60;1.00
8563;DHT22;16392;52.508;13.468;2023-10-08T15:40:15;14.50;34.70
8563;DHT22;16392;52.508;13.468;2023-10-08T15:42:47;14.40;99.90
8563;DHT22;16392;52.508;13.468;2023-10-08T15:45:17;14.40;99.90
8563;DHT22;16392;52.508;13.468;2023-10-08T15:47:43;14.40;1.00
8563;DHT22;16392;52.508;13.468;2023-10-08T15:50:10;14.30;1.00
8563;DHT22;16392;52.508;13.468;2023-10-08T15:52:37;14.30;1.00
8563;DHT22;16392;52.508;13.468;2023-10-08T15:55:05;14.30;33.80
8563;DHT22;16392;52.508;13.468;2023-10-08T15:57:31;14.20;23.80
8563;DHT22;16392;52.508;13.468;2023-10-08T15:59:58;14.20;99.90
8563;DHT22;16392;52.508;13.468;2023-10-08T16:02:26;14.20;99.90